Samsun Carsamba Airport Samsun TR
ICAO: LTFH
IATA: SZF
Category: Medium
Scheduled Services: Yes

Elevation: 18 ft
TransAlt. 10000 ft.

Airport Communications:
APP:118.175
ATIS:129.35
GND:121.7
TWR:118.35

LTFH Zoom In..

If you have problems with the map follow the link
https://www.worldairports.se/pages/airport.php?
ICAO=LTFH

Runways:

(A) RW 13 length 9843 ft width 148 ft
ILS 110.10 / hdg 129

(B) RW 31 length 9843 ft width 148 ft
---- / hdg 309

Location; LTFH
Day. 13 / Time. 20.50 Zulu
* QNH: 1024
* Temperature: 05° c. 41°f.
* Wind from: 180° Speed 07 kn.
Dewpoint: -03° c.
Visibility: 10 km or more,
No clouds below 1,500 m.
No cumulonimbus, and no significant weather
fenomena in the aerodrome or its vicinity.
No significant changes expected in the near future.

LTFH 132050Z 18007KT 160V220 CAVOK 05/M03 Q1024 NOSIG


Wind From 180°
Speed 07 kn.

 
 
jpsmedia.com for Web Design worldairports.se 2018   terms of use